Time;durP1;ratioP1;P1;durP2;ratioP2;P2;SDS_P1;SDS_P2;PMS_P1;PMS_P2;Temp;Humidity;BMP_temperature;BMP_pressure;BME280_temperature;BME280_humidity;BME280_pressure;Samples;Min_cycle;Max_cycle;Signal;HPM_P1;HPM_P2
2022/12/26 00:01:29;;;;;;;2.00;1.57;;;11.90;98.00;;;;;;5034866;28;20465;-72
2022/12/26 00:03:57;;;;;;;3.43;2.00;;;11.90;98.00;;;;;;5033405;28;20461;-72
2022/12/26 00:06:26;;;;;;;4.90;2.17;;;11.90;98.00;;;;;;5034529;28;20451;-72
2022/12/26 00:08:54;;;;;;;2.10;1.60;;;11.90;98.00;;;;;;5033939;28;20457;-72
2022/12/26 00:11:22;;;;;;;2.43;1.93;;;11.80;98.00;;;;;;5034602;28;20936;-72
2022/12/26 00:13:54;;;;;;;1.70;1.50;;;11.80;98.00;;;;;;5034801;28;20849;-72
2022/12/26 00:16:21;;;;;;;2.13;1.77;;;11.70;98.00;;;;;;5034380;28;20535;-72
2022/12/26 00:18:50;;;;;;;1.87;1.60;;;11.70;98.00;;;;;;5034667;28;20514;-72
2022/12/26 00:21:19;;;;;;;2.83;1.90;;;11.80;98.00;;;;;;5034414;28;20449;-72
2022/12/26 00:23:46;;;;;;;2.70;1.77;;;11.80;98.00;;;;;;5034633;28;20462;-72
2022/12/26 00:26:15;;;;;;;2.13;1.60;;;11.70;98.00;;;;;;5034321;28;20453;-72
2022/12/26 00:28:44;;;;;;;2.33;1.73;;;11.50;98.00;;;;;;5034404;28;20463;-72
2022/12/26 00:31:14;;;;;;;2.03;1.70;;;11.60;98.00;;;;;;5034322;28;20455;-72
2022/12/26 00:33:41;;;;;;;3.10;2.00;;;11.50;98.00;;;;;;5034200;28;21156;-72
2022/12/26 00:36:12;;;;;;;2.80;1.73;;;11.50;98.00;;;;;;5033211;28;20494;-72
2022/12/26 00:38:40;;;;;;;3.37;1.70;;;11.50;98.00;;;;;;5034046;28;20498;-72
2022/12/26 00:41:09;;;;;;;3.10;2.00;;;11.40;98.00;;;;;;5033586;28;20477;-72
2022/12/26 00:43:37;;;;;;;2.60;1.60;;;11.50;98.00;;;;;;5033875;28;20560;-72
2022/12/26 00:46:04;;;;;;;2.50;1.80;;;11.60;98.00;;;;;;5033625;28;20461;-72
2022/12/26 00:48:32;;;;;;;2.77;2.20;;;11.60;98.00;;;;;;5034076;28;20463;-72
2022/12/26 00:50:59;;;;;;;3.63;2.00;;;11.60;98.00;;;;;;5033629;28;20522;-72
2022/12/26 00:53:28;;;;;;;2.77;2.03;;;11.50;98.00;;;;;;5034748;28;20452;-72
2022/12/26 00:55:55;;;;;;;3.00;2.10;;;11.40;98.00;;;;;;5033549;28;20497;-72
2022/12/26 00:58:23;;;;;;;4.33;2.57;;;11.40;98.00;;;;;;5035141;28;20460;-72
2022/12/26 01:00:50;;;;;;;2.37;2.17;;;11.30;98.00;;;;;;5033805;28;21190;-72
2022/12/26 01:03:17;;;;;;;2.20;1.90;;;11.10;98.00;;;;;;5033703;28;20464;-72
2022/12/26 01:05:46;;;;;;;3.07;1.90;;;11.20;98.00;;;;;;5033647;28;20476;-72
2022/12/26 01:08:14;;;;;;;3.73;1.90;;;11.00;98.00;;;;;;5033637;28;20460;-72
2022/12/26 01:10:42;;;;;;;5.57;2.47;;;11.00;98.00;;;;;;5032151;28;20455;-72
2022/12/26 01:13:10;;;;;;;4.30;1.73;;;10.90;98.00;;;;;;5033733;28;20540;-72
2022/12/26 01:15:38;;;;;;;3.17;2.30;;;11.00;98.00;;;;;;5032183;28;20491;-72
2022/12/26 01:18:05;;;;;;;3.97;1.80;;;10.90;98.00;;;;;;5033596;28;20509;-72
2022/12/26 01:20:33;;;;;;;3.20;2.00;;;10.70;98.00;;;;;;5032517;28;21209;-72
2022/12/26 01:23:00;;;;;;;3.53;2.13;;;10.80;98.00;;;;;;5033378;28;20822;-72
2022/12/26 01:25:28;;;;;;;2.47;1.93;;;10.90;98.00;;;;;;5032988;28;20458;-72
2022/12/26 01:27:57;;;;;;;3.57;2.00;;;10.90;98.00;;;;;;5033244;28;20469;-72
2022/12/26 01:30:25;;;;;;;2.00;1.67;;;10.90;98.00;;;;;;5033006;28;20514;-72
2022/12/26 01:32:53;;;;;;;2.20;1.80;;;11.10;98.00;;;;;;5031607;28;20454;-72
2022/12/26 01:35:20;;;;;;;4.00;1.90;;;11.20;98.00;;;;;;5032839;28;20487;-72
2022/12/26 01:37:47;;;;;;;3.70;2.00;;;11.20;98.00;;;;;;5032807;28;20940;-72
2022/12/26 01:40:14;;;;;;;3.10;1.77;;;11.30;98.00;;;;;;5032677;28;20461;-72
2022/12/26 01:42:42;;;;;;;2.10;1.43;;;11.30;98.00;;;;;;5032856;28;20466;-72
2022/12/26 01:45:22;;;;;;;2.30;2.10;;;11.40;98.00;;;;;;5032563;28;20465;-72
2022/12/26 01:47:54;;;;;;;3.07;1.60;;;11.40;98.00;;;;;;5032787;28;20464;-72
2022/12/26 01:50:35;;;;;;;2.67;1.80;;;11.40;98.00;;;;;;5015419;28;20487;-72
2022/12/26 01:53:09;;;;;;;2.30;2.10;;;11.50;98.00;;;;;;5032577;28;20460;-72
2022/12/26 01:55:38;;;;;;;2.10;1.80;;;11.50;98.00;;;;;;5032152;28;20560;-72
2022/12/26 01:58:10;;;;;;;2.37;1.77;;;11.60;98.00;;;;;;5031874;28;20462;-72
2022/12/26 02:00:39;;;;;;;2.37;1.90;;;11.60;98.00;;;;;;5031918;28;20839;-72
2022/12/26 02:05:55;;;;;;;2.83;1.83;;;11.70;98.00;;;;;;5032452;28;20944;-72
2022/12/26 02:08:27;;;;;;;3.03;1.83;;;11.70;98.00;;;;;;5032403;28;20518;-72
2022/12/26 02:11:00;;;;;;;2.03;1.63;;;11.70;98.00;;;;;;5032515;28;20469;-72
2022/12/26 02:13:29;;;;;;;3.53;1.70;;;11.80;98.00;;;;;;5032409;28;20827;-72
2022/12/26 02:15:58;;;;;;;2.77;1.90;;;11.90;98.00;;;;;;5032042;28;20489;-72
2022/12/26 02:18:26;;;;;;;3.17;1.93;;;12.00;98.00;;;;;;5032750;28;20463;-72
2022/12/26 02:21:06;;;;;;;4.27;2.43;;;12.00;98.00;;;;;;5032484;28;21159;-72
2022/12/26 02:24:24;;;;;;;2.67;1.60;;;12.00;98.00;;;;;;5032115;28;20466;-72
2022/12/26 02:27:20;;;;;;;2.70;1.57;;;12.10;98.00;;;;;;4971082;28;20532;-72
2022/12/26 02:30:09;;;;;;;2.40;1.60;;;12.10;98.00;;;;;;5044523;28;20457;-72
2022/12/26 02:33:05;;;;;;;2.07;1.70;;;12.10;98.00;;;;;;5032218;28;20465;-72
2022/12/26 02:35:49;;;;;;;1.97;1.60;;;12.10;98.00;;;;;;5032132;28;20826;-72
2022/12/26 02:38:31;;;;;;;2.80;1.90;;;12.10;98.00;;;;;;5031994;28;20534;-72
2022/12/26 02:41:11;;;;;;;2.07;1.50;;;12.10;98.00;;;;;;5031856;28;20462;-72
2022/12/26 02:43:47;;;;;;;3.03;1.70;;;12.10;98.00;;;;;;5031945;28;20470;-72
2022/12/26 02:49:19;;;;;;;2.47;2.00;;;12.00;98.00;;;;;;5031646;28;20926;-72
2022/12/26 03:14:42;;;;;;;3.00;1.83;;;11.30;98.00;;;;;;4993637;28;21005;-72
2022/12/26 03:17:20;;;;;;;2.40;1.90;;;11.30;98.00;;;;;;5031333;28;20533;-72
2022/12/26 03:19:59;;;;;;;1.90;1.67;;;11.30;98.00;;;;;;5031744;28;20459;-72
2022/12/26 03:22:36;;;;;;;2.37;1.50;;;11.30;98.00;;;;;;5031625;28;20458;-72
2022/12/26 03:27:53;;;;;;;4.23;1.73;;;11.30;98.00;;;;;;5031547;28;20457;-72
2022/12/26 03:34:15;;;;;;;2.03;1.77;;;11.50;98.00;;;;;;5031443;28;20452;-72
2022/12/26 03:35:51;;;;;;;2.50;1.70;;;11.50;98.00;;;;;;5030997;28;20524;-72
2022/12/26 03:38:24;;;;;;;2.23;1.73;;;11.60;98.00;;;;;;5031265;28;20459;-72
2022/12/26 04:41:34;;;;;;;1.60;1.40;;;11.20;98.00;;;;;;5033375;28;20483;-72
2022/12/26 04:44:03;;;;;;;4.50;2.10;;;11.50;98.00;;;;;;5033850;28;20974;-71
2022/12/26 04:46:33;;;;;;;2.37;1.87;;;11.60;98.00;;;;;;5044415;28;20496;-72
2022/12/26 04:51:48;;;;;;;3.17;1.90;;;11.70;98.00;;;;;;5053910;28;20445;-72
2022/12/26 04:54:16;;;;;;;2.00;1.80;;;11.80;98.00;;;;;;5053785;28;20467;-72
2022/12/26 04:56:43;;;;;;;2.07;1.70;;;12.00;98.00;;;;;;5053487;28;20479;-72
2022/12/26 04:59:10;;;;;;;3.30;1.90;;;12.10;98.00;;;;;;5053670;28;20495;-72
2022/12/26 05:10:01;;;;;;;18.03;2.20;;;12.50;98.00;;;;;;5053778;28;20452;-72
2022/12/26 05:12:29;;;;;;;2.23;1.80;;;12.60;98.00;;;;;;5053452;28;20506;-72
2022/12/26 05:14:56;;;;;;;2.03;1.73;;;12.60;98.00;;;;;;5053494;28;20462;-72
2022/12/26 05:28:41;;;;;;;3.67;2.10;;;12.80;98.00;;;;;;5053148;28;20490;-72
2022/12/26 05:31:10;;;;;;;2.73;1.93;;;12.80;98.00;;;;;;5051867;28;20478;-72
2022/12/26 05:36:25;;;;;;;2.33;1.50;;;12.80;98.00;;;;;;5052913;28;20985;-72
2022/12/26 05:38:54;;;;;;;3.33;1.93;;;12.80;98.00;;;;;;5052905;28;20461;-72
2022/12/26 05:41:22;;;;;;;1.70;1.50;;;12.80;98.00;;;;;;5052705;28;20460;-72
2022/12/26 05:43:49;;;;;;;1.83;1.60;;;12.80;98.00;;;;;;5052872;28;20462;-72
2022/12/26 05:46:16;;;;;;;2.70;1.87;;;12.80;98.00;;;;;;5048585;28;20879;-72
2022/12/26 05:48:44;;;;;;;2.50;1.87;;;12.80;98.00;;;;;;5032780;28;20521;-72
2022/12/26 05:51:11;;;;;;;3.00;1.60;;;12.70;98.00;;;;;;5032737;28;20462;-72
2022/12/26 05:53:40;;;;;;;2.40;1.70;;;12.70;98.00;;;;;;5032899;28;20963;-72
2022/12/26 05:56:11;;;;;;;2.70;1.80;;;12.70;98.00;;;;;;5032562;28;20482;-72
2022/12/26 05:58:38;;;;;;;3.03;1.90;;;12.70;98.00;;;;;;5032723;28;20554;-71
2022/12/26 06:01:07;;;;;;;2.07;1.60;;;12.70;98.00;;;;;;5032660;28;20802;-72
2022/12/26 06:03:35;;;;;;;1.97;1.50;;;12.70;98.00;;;;;;5032716;28;20824;-72
2022/12/26 06:06:04;;;;;;;2.00;1.70;;;12.80;98.00;;;;;;5031873;28;20455;-72
2022/12/26 06:08:32;;;;;;;4.03;1.83;;;12.70;98.00;;;;;;5032690;28;20461;-71
2022/12/26 06:11:03;;;;;;;1.90;1.43;;;12.80;98.00;;;;;;5032268;28;20463;-72
2022/12/26 06:13:31;;;;;;;2.93;1.60;;;12.80;98.00;;;;;;5032532;28;20472;-72
2022/12/26 06:15:58;;;;;;;3.00;1.80;;;12.80;98.00;;;;;;5032126;28;20482;-72
2022/12/26 06:18:25;;;;;;;2.77;1.80;;;12.80;98.00;;;;;;5032044;28;21078;-72
2022/12/26 06:20:52;;;;;;;3.00;2.10;;;12.90;98.00;;;;;;5030729;28;20467;-72
2022/12/26 06:23:21;;;;;;;3.30;1.97;;;12.80;98.00;;;;;;5032139;28;20461;-72
2022/12/26 06:25:54;;;;;;;1.83;1.67;;;12.80;98.00;;;;;;5031933;28;20463;-72
2022/12/26 06:28:22;;;;;;;2.43;1.80;;;12.80;98.00;;;;;;5032072;28;20489;-72
2022/12/26 06:30:49;;;;;;;5.73;2.50;;;12.80;98.00;;;;;;5031638;28;20459;-72
2022/12/26 06:33:16;;;;;;;4.73;1.80;;;12.90;98.00;;;;;;5032063;28;20466;-72
2022/12/26 06:35:46;;;;;;;3.53;2.47;;;12.90;98.00;;;;;;5032094;28;20520;-72
2022/12/26 06:38:13;;;;;;;2.10;1.83;;;12.90;98.00;;;;;;5031516;28;20487;-72
2022/12/26 06:40:42;;;;;;;1.80;1.67;;;12.80;98.00;;;;;;5031997;28;20795;-72
2022/12/26 06:43:09;;;;;;;2.83;2.00;;;12.80;98.00;;;;;;5032340;28;20469;-72
2022/12/26 06:45:37;;;;;;;2.30;2.00;;;12.80;98.00;;;;;;5032130;28;20462;-72
2022/12/26 06:48:05;;;;;;;3.73;2.00;;;12.80;98.00;;;;;;5031805;28;20576;-72
2022/12/26 06:50:36;;;;;;;2.60;1.67;;;12.90;98.00;;;;;;5031927;28;20458;-72
2022/12/26 06:53:03;;;;;;;3.37;1.93;;;12.90;98.00;;;;;;5032117;28;20954;-72
2022/12/26 06:55:30;;;;;;;3.30;1.90;;;12.80;98.00;;;;;;5031882;28;20463;-72
2022/12/26 06:57:59;;;;;;;2.33;1.87;;;12.80;98.00;;;;;;5030622;28;20846;-72
2022/12/26 07:00:28;;;;;;;2.13;1.50;;;12.80;98.00;;;;;;5030747;28;20524;-72
2022/12/26 07:02:56;;;;;;;2.23;1.90;;;12.80;98.00;;;;;;5032011;28;20451;-71
2022/12/26 07:05:23;;;;;;;2.90;1.83;;;12.90;98.00;;;;;;5031729;28;20459;-71
2022/12/26 07:07:52;;;;;;;2.90;1.87;;;12.90;98.00;;;;;;5032047;28;20454;-71
2022/12/26 07:10:19;;;;;;;2.27;1.70;;;12.80;98.00;;;;;;5031631;28;20460;-72
2022/12/26 07:12:47;;;;;;;2.30;1.73;;;12.70;98.00;;;;;;5031721;28;20465;-72
2022/12/26 07:15:16;;;;;;;1.60;1.50;;;12.80;98.00;;;;;;5031596;28;20814;-71
2022/12/26 07:17:43;;;;;;;7.30;3.40;;;12.80;98.00;;;;;;5034144;28;21014;-72
2022/12/26 07:20:11;;;;;;;2.70;2.17;;;12.70;98.00;;;;;;5035382;28;20469;-72
2022/12/26 07:22:38;;;;;;;1.70;1.60;;;12.70;98.00;;;;;;5035443;28;20499;-71
2022/12/26 07:25:07;;;;;;;2.00;1.60;;;12.60;98.00;;;;;;5033916;28;20850;-72
2022/12/26 07:27:34;;;;;;;4.40;2.00;;;12.70;98.00;;;;;;5034068;28;20482;-72
2022/12/26 07:30:01;;;;;;;5.13;2.30;;;12.70;98.00;;;;;;5035296;28;20461;-71
2022/12/26 07:32:30;;;;;;;4.83;3.00;;;12.70;98.00;;;;;;5035125;28;20456;-72
2022/12/26 07:34:57;;;;;;;2.77;1.80;;;12.70;98.00;;;;;;5035362;28;20485;-72
2022/12/26 07:37:24;;;;;;;4.50;2.33;;;12.60;98.00;;;;;;5034665;28;21180;-71
2022/12/26 07:39:51;;;;;;;2.67;1.80;;;12.60;98.00;;;;;;5034501;28;20457;-72
2022/12/26 07:42:20;;;;;;;2.93;2.10;;;12.60;98.00;;;;;;5034267;28;20450;-71
2022/12/26 07:44:47;;;;;;;2.90;1.83;;;12.60;98.00;;;;;;5034354;28;20471;-72
2022/12/26 07:47:15;;;;;;;2.40;1.70;;;12.60;98.00;;;;;;5035101;28;20474;-72
2022/12/26 07:49:44;;;;;;;3.40;1.50;;;12.50;98.00;;;;;;5035240;28;20463;-72
2022/12/26 07:52:11;;;;;;;2.23;1.63;;;12.40;98.00;;;;;;5035078;28;20460;-72
2022/12/26 07:54:38;;;;;;;4.37;1.97;;;12.50;98.00;;;;;;5033990;28;20509;-72
2022/12/26 07:57:06;;;;;;;2.77;1.63;;;12.50;98.00;;;;;;5034773;28;20481;-72
2022/12/26 07:59:33;;;;;;;4.13;2.03;;;12.50;98.00;;;;;;5034833;28;21111;-72
2022/12/26 08:02:03;;;;;;;1.87;1.43;;;12.50;98.00;;;;;;5034999;28;20957;-72
2022/12/26 08:04:30;;;;;;;2.30;2.00;;;12.50;98.00;;;;;;5035206;28;20539;-72
2022/12/26 08:06:59;;;;;;;6.27;3.10;;;12.70;98.00;;;;;;5034956;28;20460;-72
2022/12/26 08:09:26;;;;;;;2.70;1.70;;;12.60;98.00;;;;;;5034728;28;20477;-72
2022/12/26 08:11:53;;;;;;;1.90;1.73;;;12.50;98.00;;;;;;5034374;28;20454;-72
2022/12/26 08:14:20;;;;;;;3.43;1.80;;;12.50;98.00;;;;;;5034546;28;20457;-72
2022/12/26 08:16:47;;;;;;;3.33;1.80;;;12.50;98.00;;;;;;5034454;28;20510;-72
2022/12/26 08:19:14;;;;;;;2.30;1.63;;;12.50;98.00;;;;;;5034219;28;20462;-72
2022/12/26 08:21:41;;;;;;;3.83;1.97;;;12.40;98.00;;;;;;5034509;28;20461;-72
2022/12/26 08:24:10;;;;;;;2.57;1.90;;;12.40;98.00;;;;;;5034130;28;20452;-72
2022/12/26 08:26:37;;;;;;;3.03;1.37;;;12.30;98.00;;;;;;5033991;28;20467;-72
2022/12/26 08:29:05;;;;;;;2.37;1.73;;;12.20;98.00;;;;;;5033589;28;20481;-72
2022/12/26 08:31:32;;;;;;;5.37;2.60;;;12.20;98.00;;;;;;5034283;28;20464;-72
2022/12/26 08:34:00;;;;;;;2.23;1.60;;;12.10;98.00;;;;;;5034321;28;20469;-72
2022/12/26 08:36:27;;;;;;;2.67;1.80;;;12.10;98.00;;;;;;5034534;28;20459;-75
2022/12/26 08:38:56;;;;;;;3.87;1.70;;;12.00;98.00;;;;;;5030503;28;21079;-73
2022/12/26 08:41:27;;;;;;;3.73;1.73;;;12.00;98.00;;;;;;5023808;28;20499;-73
2022/12/26 08:43:54;;;;;;;1.90;1.53;;;12.10;98.00;;;;;;5027268;28;20470;-72
2022/12/26 08:46:22;;;;;;;3.77;2.27;;;12.10;98.00;;;;;;5030084;28;20456;-71
2022/12/26 08:48:50;;;;;;;2.70;1.80;;;12.00;98.00;;;;;;5027883;28;20455;-70
2022/12/26 08:51:20;;;;;;;2.00;1.77;;;12.10;98.00;;;;;;5024744;28;20936;-71
2022/12/26 08:53:49;;;;;;;3.60;2.20;;;12.10;98.00;;;;;;5026593;28;20471;-72
2022/12/26 08:56:18;;;;;;;2.73;1.80;;;12.00;98.00;;;;;;5026181;28;20494;-73
2022/12/26 08:58:47;;;;;;;2.63;1.80;;;12.00;98.00;;;;;;5018311;28;20554;-72
2022/12/26 09:01:16;;;;;;;3.53;1.77;;;12.00;98.00;;;;;;5029777;28;20508;-72
2022/12/26 09:03:44;;;;;;;2.40;1.70;;;11.90;98.00;;;;;;5025973;28;20468;-72
2022/12/26 09:06:13;;;;;;;5.83;2.10;;;11.90;98.00;;;;;;5023042;28;20849;-72
2022/12/26 09:08:41;;;;;;;3.60;1.90;;;11.90;98.00;;;;;;5027787;28;20463;-69
2022/12/26 09:11:12;;;;;;;2.53;1.80;;;11.80;98.00;;;;;;5018909;28;20462;-68
2022/12/26 09:13:39;;;;;;;3.10;1.40;;;11.80;98.00;;;;;;5024641;28;20475;-68
2022/12/26 09:16:11;;;;;;;4.83;2.07;;;11.80;98.00;;;;;;5027945;28;20462;-68
2022/12/26 09:18:38;;;;;;;2.30;1.63;;;11.80;98.00;;;;;;5021012;28;20520;-67
2022/12/26 09:21:07;;;;;;;3.83;2.20;;;11.80;98.00;;;;;;5023029;28;20469;-68
2022/12/26 09:23:35;;;;;;;2.10;1.63;;;11.80;98.00;;;;;;5016554;28;20465;-69
2022/12/26 09:26:07;;;;;;;3.37;2.20;;;11.80;98.00;;;;;;5019114;28;20459;-68
2022/12/26 09:28:35;;;;;;;4.53;2.70;;;11.80;98.00;;;;;;5027960;28;21114;-69
2022/12/26 09:31:03;;;;;;;2.63;1.93;;;11.90;98.00;;;;;;5024250;28;21110;-68
2022/12/26 09:33:35;;;;;;;2.30;1.70;;;11.90;98.00;;;;;;5024804;28;20457;-69
2022/12/26 09:36:05;;;;;;;4.03;2.23;;;11.80;98.00;;;;;;5024987;28;20493;-69
2022/12/26 09:38:33;;;;;;;3.90;2.20;;;11.70;98.00;;;;;;5028078;28;20992;-69
2022/12/26 09:41:12;;;;;;;2.17;1.67;;;11.70;98.00;;;;;;5028222;28;20463;-70
2022/12/26 09:43:53;;;;;;;4.13;2.03;;;11.50;98.00;;;;;;5017110;28;20463;-70
2022/12/26 09:46:29;;;;;;;3.53;2.00;;;11.50;98.00;;;;;;5023184;28;20462;-71
2022/12/26 09:49:02;;;;;;;3.20;1.90;;;11.50;98.00;;;;;;5025518;28;20469;-69
2022/12/26 09:51:31;;;;;;;4.20;2.20;;;11.40;98.00;;;;;;5019389;28;20471;-70
2022/12/26 09:54:00;;;;;;;4.97;2.13;;;11.40;98.00;;;;;;5029204;28;20937;-69
2022/12/26 09:56:29;;;;;;;2.33;2.00;;;11.40;98.00;;;;;;5022112;28;20455;-75
2022/12/26 09:58:59;;;;;;;4.00;3.00;;;11.40;98.00;;;;;;5020280;28;20484;-71
2022/12/26 10:01:30;;;;;;;4.40;2.80;;;11.30;98.00;;;;;;5028833;28;20463;-76
2022/12/26 10:04:01;;;;;;;5.37;2.60;;;11.40;98.00;;;;;;5022258;28;20555;-73
2022/12/26 10:06:35;;;;;;;6.07;2.70;;;11.40;98.00;;;;;;5027281;28;20484;-71
2022/12/26 10:09:18;;;;;;;4.90;2.60;;;11.40;98.00;;;;;;5028775;28;20542;-72
2022/12/26 10:12:17;;;;;;;7.77;2.83;;;11.30;98.00;;;;;;5017747;28;20543;-70
2022/12/26 10:14:56;;;;;;;3.67;2.97;;;11.40;98.00;;;;;;5019857;28;20472;-71
2022/12/26 10:17:32;;;;;;;4.50;2.83;;;11.40;98.00;;;;;;5020521;28;20479;-72
2022/12/26 10:20:18;;;;;;;3.27;2.20;;;11.50;98.00;;;;;;5020985;28;20466;-72
2022/12/26 10:23:24;;;;;;;3.30;2.50;;;11.40;98.00;;;;;;5012184;28;20470;-72
2022/12/26 10:25:55;;;;;;;3.60;2.17;;;11.40;98.00;;;;;;5011509;28;20462;-73
2022/12/26 10:28:32;;;;;;;11.73;3.77;;;11.30;98.00;;;;;;5018485;28;20466;-73
2022/12/26 10:31:02;;;;;;;2.63;2.00;;;11.30;98.00;;;;;;5010544;28;20886;-72
2022/12/26 10:33:37;;;;;;;4.47;2.10;;;11.10;98.00;;;;;;5015777;28;20790;-72
2022/12/26 10:36:08;;;;;;;3.43;1.67;;;11.00;98.00;;;;;;5013680;28;20800;-72
2022/12/26 10:38:40;;;;;;;3.03;2.03;;;11.00;98.00;;;;;;5012176;28;20497;-72
2022/12/26 10:41:18;;;;;;;2.17;1.80;;;11.00;98.00;;;;;;5012938;28;20479;-72
2022/12/26 10:43:45;;;;;;;3.27;2.20;;;10.90;98.00;;;;;;5020033;28;20617;-72
2022/12/26 10:46:44;;;;;;;4.10;2.07;;;10.90;98.00;;;;;;5013002;28;20463;-72
2022/12/26 10:49:12;;;;;;;6.30;3.10;;;10.90;98.00;;;;;;5008186;28;20476;-72
2022/12/26 10:51:40;;;;;;;4.33;2.37;;;10.90;98.00;;;;;;5019999;28;20483;-72
2022/12/26 10:54:18;;;;;;;3.60;2.53;;;10.90;98.00;;;;;;5015811;28;20966;-72
2022/12/26 10:56:48;;;;;;;2.70;1.77;;;10.90;98.00;;;;;;5018801;28;20779;-72
2022/12/26 10:59:20;;;;;;;2.40;2.00;;;10.90;98.00;;;;;;5019129;28;20597;-72
2022/12/26 11:01:49;;;;;;;3.53;1.73;;;10.90;98.00;;;;;;5018009;28;20464;-72
2022/12/26 11:04:21;;;;;;;3.07;2.30;;;10.90;98.00;;;;;;5018168;28;20469;-72
2022/12/26 11:06:52;;;;;;;3.73;2.20;;;10.90;98.00;;;;;;5017024;28;20973;-72
2022/12/26 11:09:35;;;;;;;2.90;1.70;;;11.00;98.00;;;;;;5015161;28;20455;-72
2022/12/26 11:12:04;;;;;;;3.00;2.10;;;11.10;98.00;;;;;;5013164;28;20488;-72
2022/12/26 11:14:36;;;;;;;1.80;1.60;;;11.10;98.00;;;;;;5014993;28;20581;-72
2022/12/26 11:17:06;;;;;;;2.20;1.63;;;11.10;98.00;;;;;;5017287;28;20461;-72
2022/12/26 11:19:38;;;;;;;2.83;1.90;;;11.30;98.00;;;;;;5013204;28;20984;-72
2022/12/26 11:22:26;;;;;;;3.87;2.33;;;11.20;98.00;;;;;;5012979;28;21847;-72
2022/12/26 11:25:18;;;;;;;3.30;2.00;;;11.20;98.00;;;;;;5017397;28;20516;-73
2022/12/26 11:27:48;;;;;;;2.30;1.73;;;11.20;98.00;;;;;;5018720;28;20511;-75
2022/12/26 11:30:19;;;;;;;2.83;1.93;;;11.20;98.00;;;;;;5012595;28;20468;-70
2022/12/26 11:32:48;;;;;;;2.43;1.70;;;11.10;98.00;;;;;;5018764;28;20477;-71
2022/12/26 11:35:18;;;;;;;2.10;1.60;;;11.10;98.00;;;;;;5015904;28;20462;-71
2022/12/26 11:37:50;;;;;;;1.90;1.40;;;11.30;98.00;;;;;;5018606;28;20459;-72
2022/12/26 11:40:23;;;;;;;3.17;1.60;;;11.30;98.00;;;;;;5017835;28;20928;-72
2022/12/26 11:42:54;;;;;;;1.63;1.40;;;11.40;98.00;;;;;;5015957;28;20515;-70
2022/12/26 11:45:23;;;;;;;2.37;1.50;;;11.50;98.00;;;;;;5010617;28;20959;-71
2022/12/26 11:47:55;;;;;;;2.30;1.43;;;11.40;98.00;;;;;;5013673;28;20469;-70
2022/12/26 11:50:25;;;;;;;4.30;1.93;;;11.40;98.00;;;;;;5019088;28;20512;-70
2022/12/26 11:53:06;;;;;;;3.40;1.43;;;11.30;98.00;;;;;;5022894;28;20465;-72
2022/12/26 11:55:35;;;;;;;1.67;1.37;;;11.20;98.00;;;;;;5013829;28;20853;-70
2022/12/26 11:58:18;;;;;;;3.77;1.63;;;11.20;98.00;;;;;;5023944;28;20491;-72
2022/12/26 12:01:04;;;;;;;2.33;1.40;;;11.10;98.00;;;;;;5018933;28;20458;-70
2022/12/26 12:03:36;;;;;;;4.93;1.80;;;11.10;98.00;;;;;;5017781;28;20514;-72
2022/12/26 12:06:15;;;;;;;1.90;1.53;;;11.20;98.00;;;;;;5012746;28;20451;-70
2022/12/26 12:08:51;;;;;;;2.10;1.63;;;11.10;98.00;;;;;;5021106;28;21013;-69
2022/12/26 12:11:29;;;;;;;2.00;1.70;;;11.10;98.00;;;;;;5022978;28;20454;-69
2022/12/26 12:14:10;;;;;;;1.93;1.60;;;11.30;98.00;;;;;;5022453;28;20981;-69
2022/12/26 12:17:02;;;;;;;3.43;1.70;;;11.30;98.00;;;;;;5017968;28;20450;-69
2022/12/26 12:19:43;;;;;;;3.63;1.73;;;11.30;98.00;;;;;;5020244;28;20498;-71
2022/12/26 12:22:40;;;;;;;2.50;2.00;;;11.40;98.00;;;;;;5012407;28;20527;-71
2022/12/26 12:25:43;;;;;;;3.47;1.87;;;11.40;98.00;;;;;;5016050;28;22264;-70
2022/12/26 12:28:30;;;;;;;2.73;1.77;;;11.40;98.00;;;;;;4989991;28;20472;-73
2022/12/26 12:31:03;;;;;;;1.93;1.57;;;11.40;98.00;;;;;;5021470;28;20523;-72
2022/12/26 12:33:42;;;;;;;2.30;1.80;;;11.40;98.00;;;;;;5013625;28;20465;-72
2022/12/26 12:36:11;;;;;;;2.90;1.97;;;11.30;98.00;;;;;;5023930;28;20470;-70
2022/12/26 12:38:58;;;;;;;2.40;1.90;;;11.30;98.00;;;;;;5021205;28;20505;-73
2022/12/26 12:41:51;;;;;;;2.40;1.93;;;11.30;98.00;;;;;;5015153;28;20456;-71
2022/12/26 12:44:22;;;;;;;2.83;1.77;;;11.30;98.00;;;;;;5021268;28;20465;-70
2022/12/26 12:46:58;;;;;;;3.80;2.50;;;11.30;98.00;;;;;;5019663;28;20464;-70
2022/12/26 12:49:42;;;;;;;2.23;1.60;;;11.30;98.00;;;;;;5027534;28;20958;-69
2022/12/26 12:52:20;;;;;;;2.27;1.83;;;11.30;98.00;;;;;;5022065;28;20863;-71
2022/12/26 12:55:13;;;;;;;3.27;1.70;;;11.30;98.00;;;;;;5014063;28;21020;-71
2022/12/26 12:57:45;;;;;;;1.40;1.30;;;11.30;98.00;;;;;;5018153;28;20455;-69
2022/12/26 13:00:16;;;;;;;4.93;2.47;;;11.30;98.00;;;;;;5031071;28;20492;-70
2022/12/26 13:02:51;;;;;;;2.20;1.77;;;11.30;98.00;;;;;;5014156;28;20457;-72
2022/12/26 13:05:30;;;;;;;2.13;1.83;;;11.30;98.00;;;;;;5019579;28;20474;-72
2022/12/26 13:08:04;;;;;;;3.10;1.73;;;11.30;98.00;;;;;;5017496;28;20453;-70
2022/12/26 13:10:35;;;;;;;2.30;1.70;;;11.30;98.00;;;;;;5021024;28;20465;-70
2022/12/26 13:13:11;;;;;;;1.90;1.50;;;11.30;98.00;;;;;;5020867;28;20465;-69
2022/12/26 13:15:44;;;;;;;2.87;2.00;;;11.40;98.00;;;;;;5022121;28;20821;-70
2022/12/26 13:18:16;;;;;;;2.07;1.43;;;11.40;98.00;;;;;;5017451;28;20543;-69
2022/12/26 13:20:47;;;;;;;1.50;1.20;;;11.30;98.00;;;;;;5010948;28;20465;-69
2022/12/26 13:26:09;;;;;;;2.23;1.70;;;11.30;98.00;;;;;;5018529;28;20452;-71
2022/12/26 13:28:47;;;;;;;2.73;1.57;;;11.30;98.00;;;;;;5020675;28;20469;-70
2022/12/26 13:31:14;;;;;;;4.03;1.87;;;11.20;98.00;;;;;;5011771;28;20963;-71
2022/12/26 13:33:42;;;;;;;2.53;1.97;;;11.20;98.00;;;;;;5010057;28;20463;-72
2022/12/26 13:36:10;;;;;;;4.27;1.70;;;11.30;98.00;;;;;;5028301;28;20489;-70
2022/12/26 13:39:29;;;;;;;1.40;1.40;;;11.30;98.00;;;;;;5029661;28;20891;-70
2022/12/26 13:44:48;;;;;;;1.33;1.20;;;11.30;98.00;;;;;;5012412;28;20553;-71
2022/12/26 13:47:33;;;;;;;1.97;1.50;;;11.30;98.00;;;;;;5028535;28;20450;-70
2022/12/26 13:50:34;;;;;;;2.20;1.40;;;11.30;98.00;;;;;;5027469;28;20828;-71
2022/12/26 13:53:02;;;;;;;1.53;1.20;;;11.30;98.00;;;;;;5015171;28;20974;-72
2022/12/26 13:55:40;;;;;;;2.07;1.80;;;11.20;98.00;;;;;;5014557;28;20482;-72
2022/12/26 13:58:36;;;;;;;1.30;1.30;;;11.20;98.00;;;;;;5019883;28;20961;-72
2022/12/26 14:01:17;;;;;;;3.23;1.50;;;11.30;98.00;;;;;;5001753;28;20456;-70
2022/12/26 14:03:58;;;;;;;1.80;1.37;;;11.30;98.00;;;;;;5021792;28;20489;-70
2022/12/26 14:06:44;;;;;;;1.80;1.40;;;11.40;98.00;;;;;;5021132;28;20471;-70
2022/12/26 14:09:43;;;;;;;1.70;1.40;;;11.40;98.00;;;;;;5030397;28;20469;-70
2022/12/26 14:12:43;;;;;;;1.30;1.10;;;11.40;98.00;;;;;;5028956;28;20456;-74
2022/12/26 14:15:26;;;;;;;1.57;1.40;;;11.30;98.00;;;;;;5025308;28;20512;-73
2022/12/26 14:18:09;;;;;;;1.20;1.20;;;11.30;98.00;;;;;;5029150;28;20555;-72
2022/12/26 14:20:44;;;;;;;1.97;1.23;;;11.30;98.00;;;;;;5031799;28;20495;-74
2022/12/26 14:23:36;;;;;;;2.40;1.80;;;11.40;98.00;;;;;;5030480;28;20938;-73
2022/12/26 14:26:11;;;;;;;1.63;1.20;;;11.40;98.00;;;;;;5030043;28;20462;-74
2022/12/26 14:28:52;;;;;;;1.33;1.33;;;11.50;98.00;;;;;;5031799;28;20463;-73
2022/12/26 14:31:30;;;;;;;1.50;1.10;;;11.40;98.00;;;;;;5032072;28;20464;-73
2022/12/26 14:34:10;;;;;;;1.40;1.20;;;11.50;98.00;;;;;;5032196;28;20806;-72
2022/12/26 14:36:50;;;;;;;1.30;1.30;;;11.40;98.00;;;;;;5032067;28;20481;-74
2022/12/26 14:39:28;;;;;;;1.40;1.30;;;11.40;98.00;;;;;;5031812;28;20588;-72
2022/12/26 14:45:35;;;;;;;1.20;1.13;;;11.40;98.00;;;;;;5031799;28;20456;-74
2022/12/26 14:48:03;;;;;;;2.27;1.50;;;11.40;98.00;;;;;;5031628;28;20461;-72
2022/12/26 14:50:42;;;;;;;2.13;1.43;;;11.40;98.00;;;;;;5032093;28;20816;-74
2022/12/26 14:53:34;;;;;;;1.73;1.40;;;11.40;98.00;;;;;;5031935;28;20514;-73
2022/12/26 14:56:02;;;;;;;2.00;1.40;;;11.40;98.00;;;;;;5017224;28;20505;-72
2022/12/26 14:58:40;;;;;;;2.37;1.30;;;11.30;98.00;;;;;;5031990;28;20452;-74
2022/12/26 15:01:47;;;;;;;3.00;1.53;;;11.40;98.00;;;;;;5031814;28;20467;-73
2022/12/26 15:04:46;;;;;;;1.40;1.20;;;11.30;98.00;;;;;;5032033;28;20497;-75
2022/12/26 15:07:52;;;;;;;3.10;1.53;;;11.30;98.00;;;;;;5016606;28;20459;-76
2022/12/26 15:10:55;;;;;;;1.27;1.13;;;11.30;98.00;;;;;;5016546;28;20463;-73
2022/12/26 15:13:51;;;;;;;1.20;1.00;;;11.20;98.00;;;;;;5029451;28;20472;-72
2022/12/26 15:16:54;;;;;;;1.40;1.20;;;11.20;98.00;;;;;;5031412;28;20461;-71
2022/12/26 15:20:01;;;;;;;1.23;1.13;;;11.20;98.00;;;;;;5031494;28;20578;-74
2022/12/26 15:23:00;;;;;;;1.50;1.20;;;11.30;98.00;;;;;;5024118;28;20460;-72
2022/12/26 15:25:55;;;;;;;1.30;1.20;;;11.30;98.00;;;;;;5015104;28;20509;-72
2022/12/26 15:28:44;;;;;;;1.80;1.57;;;11.30;98.00;;;;;;5021990;28;20468;-74
2022/12/26 15:31:34;;;;;;;1.27;1.10;;;11.30;98.00;;;;;;5026237;28;20492;-72